Darstellungsparameter: Aktuell verwendete Einstellungen:
Skalierung der Graphiken ... ?
xyx+y,   Skalierungsfaktor:      Skalierung: Modus: x, Faktor: 1
Darstellungszeitraum ... ?
Vom - - bis: - -   Zeitraum: 29.04.2021 - 30.04.2021
Min/Max/Avg-Anzeige ... ?
Zeige MMA aktuell
Zeige MMA Monat
Zeige MMA alles
Zeige --A aktuell
Zeige --A Monat
Zeige --A alles
Keine MMA-Anzeige
MMA:
Keine MMA-Graphiken
MMA-Basis: 29.04.2021 - 30.04.2021
Quicknavigation für Darstellung... ?
Tage:      1T, 2T, 3T, 5T -1T -2T -3T -5T +1T +2T +3T +5T
Wochen: 1W, 2W, 3W -1W -2W -3W +1W +2W +3W
Monate: 1M, 3M, 6M -1M -3M -6M +1M +3M +6M
Jahre:    1J, 3J, 5J, 10J -1J -3J -5J -10J +1J +3J +5J +10J
Nutze für die Darstellung ... ?
Originaldaten oder Mittelwerte auf ...
Stundenbasis Tagesbasis Wochenbasis
Monatsbasis Jahresbasis      Datenbasis: Original-Daten
Darstellen als:
Statistik (Auto) Statistik J:M      Darstellung:
Zur Graphik,    zurück zur Übersicht aller Sensoren.
 
Tabellarische Datenbersicht: ?
 
Sensor: Nr:Datum:Temp:Abs-Feuchte:Windchill:Wind:
Aussen-T/F 1 29-04-2021 00:00:00 11.8 C 8 g/m*3 11.8 C 0 km/h
2 29-04-2021 00:05:00 11.6 C 7.9 g/m*3 11.6 C 0 km/h
3 29-04-2021 00:10:00 11.4 C 7.8 g/m*3 11.4 C 1.6 km/h
4 29-04-2021 00:15:00 11.3 C 7.85 g/m*3 11.3 C 0 km/h
5 29-04-2021 00:20:00 11.1 C 7.86 g/m*3 11.1 C 3.2 km/h
6 29-04-2021 00:25:00 10.9 C 7.76 g/m*3 10.9 C 4.8 km/h
7 29-04-2021 00:30:00 10.8 C 7.81 g/m*3 10.8 C 4.8 km/h
8 29-04-2021 00:35:00 10.8 C 7.81 g/m*3 10.8 C 1.6 km/h
9 29-04-2021 00:40:00 10.7 C 7.76 g/m*3 10.7 C 0 km/h
10 29-04-2021 00:45:00 10.6 C 7.81 g/m*3 10.6 C 3.2 km/h
11 29-04-2021 00:50:00 10.4 C 7.71 g/m*3 10.4 C 1.6 km/h
12 29-04-2021 00:55:00 10.3 C 7.76 g/m*3 10.3 C 3.2 km/h
13 29-04-2021 01:00:00 10.2 C 7.71 g/m*3 10.2 C 1.6 km/h
14 29-04-2021 01:05:00 10.2 C 7.71 g/m*3 10.2 C 0 km/h
15 29-04-2021 01:10:00 10.1 C 7.75 g/m*3 10.1 C 0 km/h
16 29-04-2021 01:15:00 10.1 C 7.75 g/m*3 10.1 C 0 km/h
17 29-04-2021 01:20:00 10 C 7.8 g/m*3 10 C 0 km/h
18 29-04-2021 01:25:00 10 C 7.8 g/m*3 10 C 0 km/h
19 29-04-2021 01:30:00 10.1 C 7.85 g/m*3 10.1 C 0 km/h
20 29-04-2021 01:35:00 10.1 C 7.85 g/m*3 10.1 C 0 km/h
21 29-04-2021 01:40:00 10.1 C 7.94 g/m*3 10.1 C 0 km/h
22 29-04-2021 01:45:00 10.1 C 7.94 g/m*3 10.1 C 4.8 km/h
23 29-04-2021 01:50:00 10.2 C 7.99 g/m*3 10.2 C 3.2 km/h
24 29-04-2021 01:55:00 10.4 C 8.1 g/m*3 10.4 C 4.8 km/h
25 29-04-2021 02:00:00 10.5 C 8.15 g/m*3 10.5 C 3.2 km/h
Sensor: Nr:Datum:Temp:Abs-Feuchte:Windchill:Wind:
Aussen-T/F 26 29-04-2021 02:05:00 10.6 C 8.1 g/m*3 10.6 C 1.6 km/h
27 29-04-2021 02:10:00 10.6 C 8.1 g/m*3 10.6 C 1.6 km/h
28 29-04-2021 02:15:00 10.6 C 8.1 g/m*3 10.6 C 0 km/h
29 29-04-2021 02:20:00 10.6 C 8.1 g/m*3 10.6 C 0 km/h
30 29-04-2021 02:25:00 10.5 C 8.05 g/m*3 10.5 C 1.6 km/h
31 29-04-2021 02:30:00 10.4 C 8 g/m*3 10.4 C 0 km/h
32 29-04-2021 02:35:00 10.4 C 8 g/m*3 10.4 C 0 km/h
33 29-04-2021 02:40:00 10.3 C 7.95 g/m*3 10.3 C 0 km/h
34 29-04-2021 02:45:00 10.2 C 7.9 g/m*3 10.2 C 3.2 km/h
35 29-04-2021 02:50:00 10.2 C 7.99 g/m*3 10.2 C 3.2 km/h
36 29-04-2021 02:55:00 10 C 7.89 g/m*3 10 C 0 km/h
37 29-04-2021 03:00:00 9.9 C 7.84 g/m*3 9.9 C 4.8 km/h
38 29-04-2021 03:05:00 9.8 C 7.79 g/m*3 9.8 C 4.8 km/h
39 29-04-2021 03:10:00 9.8 C 7.89 g/m*3 9.8 C 3.2 km/h
40 29-04-2021 03:15:00 9.8 C 7.89 g/m*3 9.8 C 4.8 km/h
41 29-04-2021 03:20:00 9.9 C 7.84 g/m*3 9.25 C 6.4 km/h
42 29-04-2021 03:25:00 10.1 C 7.94 g/m*3 10.1 C 3.2 km/h
43 29-04-2021 03:30:00 10.1 C 7.94 g/m*3 9.1 C 8.1 km/h
44 29-04-2021 03:35:00 10.2 C 7.9 g/m*3 9.22 C 8.1 km/h
45 29-04-2021 03:40:00 10.4 C 7.9 g/m*3 9.16 C 9.7 km/h
46 29-04-2021 03:45:00 10.5 C 7.95 g/m*3 10.5 C 3.2 km/h
47 29-04-2021 03:50:00 10.6 C 8 g/m*3 10.06 C 6.4 km/h
48 29-04-2021 03:55:00 10.6 C 7.91 g/m*3 10.6 C 4.8 km/h
49 29-04-2021 04:00:00 10.7 C 7.96 g/m*3 9.52 C 9.7 km/h
50 29-04-2021 04:05:00 10.7 C 7.96 g/m*3 10.7 C 3.2 km/h
Sensor: Nr:Datum:Temp:Abs-Feuchte:Windchill:Wind:
Aussen-T/F 51 29-04-2021 04:10:00 10.7 C 7.86 g/m*3 10.7 C 4.8 km/h
52 29-04-2021 04:15:00 10.8 C 7.91 g/m*3 10.29 C 6.4 km/h
53 29-04-2021 04:20:00 10.8 C 7.91 g/m*3 9.93 C 8.1 km/h
54 29-04-2021 04:25:00 10.8 C 7.91 g/m*3 9.93 C 8.1 km/h
55 29-04-2021 04:30:00 10.9 C 7.96 g/m*3 10.04 C 8.1 km/h
56 29-04-2021 04:35:00 10.9 C 7.96 g/m*3 10.41 C 6.4 km/h
57 29-04-2021 04:40:00 10.9 C 7.96 g/m*3 9.76 C 9.7 km/h
58 29-04-2021 04:45:00 11.1 C 7.96 g/m*3 11.1 C 9.7 km/h
59 29-04-2021 04:50:00 11.1 C 7.96 g/m*3 11.1 C 11.3 km/h
60 29-04-2021 04:55:00 11.2 C 8.01 g/m*3 11.2 C 8.1 km/h
61 29-04-2021 05:00:00 11.2 C 8.01 g/m*3 11.2 C 4.8 km/h
62 29-04-2021 05:05:00 11.2 C 8.01 g/m*3 11.2 C 6.4 km/h
63 29-04-2021 05:10:00 11.3 C 8.06 g/m*3 11.3 C 14.5 km/h
64 29-04-2021 05:15:00 11.2 C 8.01 g/m*3 11.2 C 6.4 km/h
65 29-04-2021 05:20:00 11.2 C 8.01 g/m*3 11.2 C 6.4 km/h
66 29-04-2021 05:25:00 11.3 C 8.06 g/m*3 11.3 C 9.7 km/h
67 29-04-2021 05:30:00 11.2 C 8.01 g/m*3 11.2 C 3.2 km/h
68 29-04-2021 05:35:00 11.2 C 8.01 g/m*3 11.2 C 1.6 km/h
69 29-04-2021 05:40:00 11.1 C 7.96 g/m*3 11.1 C 8.1 km/h
70 29-04-2021 05:45:00 11 C 7.91 g/m*3 9.88 C 9.7 km/h
71 29-04-2021 05:50:00 11.1 C 7.96 g/m*3 11.1 C 6.4 km/h
72 29-04-2021 05:55:00 11 C 7.91 g/m*3 10.16 C 8.1 km/h
73 29-04-2021 06:00:00 11.1 C 8.06 g/m*3 11.1 C 4.8 km/h
74 29-04-2021 06:05:00 11 C 8.01 g/m*3 10.16 C 8.1 km/h
75 29-04-2021 06:10:00 11 C 8.01 g/m*3 9.88 C 9.7 km/h
Sensor: Nr:Datum:Temp:Abs-Feuchte:Windchill:Wind:
Aussen-T/F 76 29-04-2021 06:15:00 11 C 8.01 g/m*3 10.52 C 6.4 km/h
77 29-04-2021 06:20:00 11.1 C 8.06 g/m*3 11.1 C 8.1 km/h
78 29-04-2021 06:25:00 11.1 C 7.96 g/m*3 11.1 C 6.4 km/h
79 29-04-2021 06:30:00 11.1 C 7.96 g/m*3 11.1 C 8.1 km/h
80 29-04-2021 06:35:00 11.1 C 8.06 g/m*3 11.1 C 4.8 km/h
81 29-04-2021 06:40:00 11 C 8.01 g/m*3 10.52 C 6.4 km/h
82 29-04-2021 06:45:00 11 C 8.01 g/m*3 10.52 C 6.4 km/h
83 29-04-2021 06:50:00 10.9 C 7.96 g/m*3 9.76 C 9.7 km/h
84 29-04-2021 06:55:00 11 C 8.01 g/m*3 9.63 C 11.3 km/h
85 29-04-2021 07:00:00 11 C 8.01 g/m*3 10.16 C 8.1 km/h
86 29-04-2021 07:05:00 11 C 8.01 g/m*3 9.88 C 9.7 km/h
87 29-04-2021 07:10:00 10.9 C 8.06 g/m*3 10.41 C 6.4 km/h
88 29-04-2021 07:15:00 10.9 C 8.06 g/m*3 9.76 C 9.7 km/h
89 29-04-2021 07:20:00 10.9 C 8.06 g/m*3 10.9 C 4.8 km/h
90 29-04-2021 07:25:00 10.9 C 8.06 g/m*3 9.28 C 12.9 km/h
91 29-04-2021 07:30:00 10.9 C 8.06 g/m*3 10.41 C 6.4 km/h
92 29-04-2021 07:35:00 10.9 C 8.16 g/m*3 10.9 C 4.8 km/h
93 29-04-2021 07:40:00 11 C 8.21 g/m*3 9.63 C 11.3 km/h
94 29-04-2021 07:45:00 11 C 8.21 g/m*3 11 C 4.8 km/h
95 29-04-2021 07:50:00 11 C 8.21 g/m*3 9.63 C 11.3 km/h
96 29-04-2021 07:55:00 11.1 C 8.16 g/m*3 11.1 C 9.7 km/h
97 29-04-2021 08:00:00 11.1 C 8.16 g/m*3 11.1 C 8.1 km/h
98 29-04-2021 08:05:00 11.2 C 8.21 g/m*3 11.2 C 9.7 km/h
99 29-04-2021 08:10:00 11.3 C 8.26 g/m*3 11.3 C 9.7 km/h
100 29-04-2021 08:15:00 11.4 C 8.31 g/m*3 11.4 C 11.3 km/h
Sensor: Nr:Datum:Temp:Abs-Feuchte:Windchill:Wind:
Aussen-T/F 101 29-04-2021 08:20:00 11.4 C 8.31 g/m*3 11.4 C 11.3 km/h
102 29-04-2021 08:25:00 11.4 C 8.31 g/m*3 11.4 C 14.5 km/h
103 29-04-2021 08:30:00 11.4 C 8.31 g/m*3 11.4 C 12.9 km/h
104 29-04-2021 08:35:00 11.5 C 8.37 g/m*3 11.5 C 12.9 km/h
105 29-04-2021 08:40:00 11.6 C 8.32 g/m*3 11.6 C 9.7 km/h
106 29-04-2021 08:45:00 11.6 C 8.21 g/m*3 11.6 C 12.9 km/h
107 29-04-2021 08:50:00 11.6 C 8.21 g/m*3 11.6 C 11.3 km/h
108 29-04-2021 08:55:00 11.6 C 8.21 g/m*3 11.6 C 12.9 km/h
109 29-04-2021 09:00:00 11.7 C 8.16 g/m*3 11.7 C 9.7 km/h
110 29-04-2021 09:05:00 11.9 C 8.15 g/m*3 11.9 C 16.1 km/h
111 29-04-2021 09:10:00 12.1 C 8.15 g/m*3 12.1 C 16.1 km/h
112 29-04-2021 09:15:00 12.2 C 7.99 g/m*3 12.2 C 14.5 km/h
113 29-04-2021 09:20:00 12.3 C 8.04 g/m*3 12.3 C 11.3 km/h
114 29-04-2021 09:25:00 12.5 C 8.03 g/m*3 12.5 C 8.1 km/h
115 29-04-2021 09:30:00 12.6 C 7.97 g/m*3 12.6 C 6.4 km/h
116 29-04-2021 09:35:00 12.8 C 7.84 g/m*3 12.8 C 22.5 km/h
117 29-04-2021 09:40:00 12.9 C 7.78 g/m*3 12.9 C 11.3 km/h
118 29-04-2021 09:45:00 12.9 C 7.66 g/m*3 12.9 C 12.9 km/h
119 29-04-2021 09:50:00 13.1 C 7.65 g/m*3 13.1 C 11.3 km/h
120 29-04-2021 09:55:00 13.3 C 7.63 g/m*3 13.3 C 12.9 km/h
121 29-04-2021 10:00:00 13.4 C 7.56 g/m*3 13.4 C 17.7 km/h
122 29-04-2021 10:05:00 13.6 C 7.53 g/m*3 13.6 C 14.5 km/h
123 29-04-2021 10:10:00 13.6 C 7.3 g/m*3 13.6 C 19.3 km/h
124 29-04-2021 10:15:00 13.7 C 7.34 g/m*3 13.7 C 14.5 km/h
125 29-04-2021 10:20:00 13.8 C 7.51 g/m*3 13.8 C 11.3 km/h
Sensor: Nr:Datum:Temp:Abs-Feuchte:Windchill:Wind:
Aussen-T/F 126 29-04-2021 10:25:00 13.7 C 7.22 g/m*3 13.7 C 12.9 km/h
127 29-04-2021 10:30:00 13.7 C 7.22 g/m*3 13.7 C 24.1 km/h
128 29-04-2021 10:35:00 13.8 C 7.27 g/m*3 13.8 C 14.5 km/h
129 29-04-2021 10:40:00 14.1 C 7.16 g/m*3 14.1 C 24.1 km/h
130 29-04-2021 10:45:00 14.2 C 6.96 g/m*3 14.2 C 19.3 km/h
131 29-04-2021 10:50:00 14.4 C 7.05 g/m*3 14.4 C 12.9 km/h
132 29-04-2021 10:55:00 14.7 C 6.67 g/m*3 14.7 C 20.9 km/h
133 29-04-2021 11:00:00 14.8 C 6.59 g/m*3 14.8 C 17.7 km/h
134 29-04-2021 11:05:00 14.8 C 6.33 g/m*3 14.8 C 20.9 km/h
135 29-04-2021 11:10:00 14.5 C 6.34 g/m*3 14.5 C 22.5 km/h
136 29-04-2021 11:15:00 14.4 C 6.43 g/m*3 14.4 C 14.5 km/h
137 29-04-2021 11:20:00 14.8 C 6.59 g/m*3 14.8 C 19.3 km/h
138 29-04-2021 11:25:00 15.2 C 6.62 g/m*3 15.2 C 19.3 km/h
139 29-04-2021 11:30:00 15.4 C 6.57 g/m*3 15.4 C 24.1 km/h
140 29-04-2021 11:35:00 15.4 C 6.57 g/m*3 15.4 C 17.7 km/h
141 29-04-2021 11:40:00 15.4 C 6.31 g/m*3 15.4 C 19.3 km/h
142 29-04-2021 11:45:00 15.5 C 6.48 g/m*3 15.5 C 20.9 km/h
143 29-04-2021 11:50:00 15.6 C 6.78 g/m*3 15.6 C 17.7 km/h
144 29-04-2021 11:55:00 15.8 C 6.6 g/m*3 15.8 C 27.4 km/h
145 29-04-2021 12:00:00 16 C 6.68 g/m*3 16 C 30.6 km/h
146 29-04-2021 12:05:00 15.6 C 6.65 g/m*3 15.6 C 35.4 km/h
147 29-04-2021 12:10:00 14.9 C 6.88 g/m*3 14.9 C 29 km/h
148 29-04-2021 12:15:00 14.4 C 7.05 g/m*3 14.4 C 32.2 km/h
149 29-04-2021 12:20:00 14.2 C 7.08 g/m*3 14.2 C 22.5 km/h
150 29-04-2021 12:25:00 13.9 C 7.07 g/m*3 13.9 C 17.7 km/h
Sensor: Nr:Datum:Temp:Abs-Feuchte:Windchill:Wind:
Aussen-T/F 151 29-04-2021 12:30:00 13.8 C 7.27 g/m*3 13.8 C 22.5 km/h
152 29-04-2021 12:35:00 13.9 C 7.19 g/m*3 13.9 C 17.7 km/h
153 29-04-2021 12:40:00 14 C 7.24 g/m*3 14 C 20.9 km/h
154 29-04-2021 12:45:00 14.2 C 7.2 g/m*3 14.2 C 19.3 km/h
155 29-04-2021 12:50:00 14.4 C 7.05 g/m*3 14.4 C 20.9 km/h
156 29-04-2021 12:55:00 14.4 C 6.43 g/m*3 14.4 C 30.6 km/h
157 29-04-2021 13:00:00 14.4 C 6.3 g/m*3 14.4 C 24.1 km/h
158 29-04-2021 13:05:00 14.4 C 6.3 g/m*3 14.4 C 30.6 km/h
159 29-04-2021 13:10:00 14.4 C 6.18 g/m*3 14.4 C 25.7 km/h
160 29-04-2021 13:15:00 14.5 C 6.09 g/m*3 14.5 C 20.9 km/h
161 29-04-2021 13:20:00 14.7 C 6.04 g/m*3 14.7 C 27.4 km/h
162 29-04-2021 13:25:00 14.8 C 5.95 g/m*3 14.8 C 29 km/h
163 29-04-2021 13:30:00 14.9 C 5.99 g/m*3 14.9 C 24.1 km/h
164 29-04-2021 13:35:00 15.1 C 6.06 g/m*3 15.1 C 27.4 km/h
165 29-04-2021 13:40:00 15.2 C 6.23 g/m*3 15.2 C 22.5 km/h
166 29-04-2021 13:45:00 15.4 C 6.04 g/m*3 15.4 C 19.3 km/h
167 29-04-2021 13:50:00 15.6 C 6.25 g/m*3 15.6 C 24.1 km/h
168 29-04-2021 13:55:00 15.6 C 5.98 g/m*3 15.6 C 24.1 km/h
169 29-04-2021 14:00:00 15.4 C 5.78 g/m*3 15.4 C 30.6 km/h
170 29-04-2021 14:05:00 15.2 C 5.71 g/m*3 15.2 C 29 km/h
171 29-04-2021 14:10:00 15.1 C 5.93 g/m*3 15.1 C 24.1 km/h
172 29-04-2021 14:15:00 14.9 C 5.99 g/m*3 14.9 C 25.7 km/h
173 29-04-2021 14:20:00 14.8 C 6.21 g/m*3 14.8 C 17.7 km/h
174 29-04-2021 14:25:00 14.8 C 6.33 g/m*3 14.8 C 14.5 km/h
175 29-04-2021 14:30:00 15 C 6.15 g/m*3 15 C 20.9 km/h
Sensor: Nr:Datum:Temp:Abs-Feuchte:Windchill:Wind:
Aussen-T/F 176 29-04-2021 14:35:00 15.3 C 6.14 g/m*3 15.3 C 22.5 km/h
177 29-04-2021 14:40:00 15.6 C 6.12 g/m*3 15.6 C 25.7 km/h
178 29-04-2021 14:45:00 15.8 C 6.19 g/m*3 15.8 C 24.1 km/h
179 29-04-2021 14:50:00 15.7 C 6.69 g/m*3 15.7 C 32.2 km/h
180 29-04-2021 14:55:00 15.4 C 6.7 g/m*3 15.4 C 27.4 km/h
181 29-04-2021 15:00:00 15.3 C 6.66 g/m*3 15.3 C 14.5 km/h
182 29-04-2021 15:05:00 15.3 C 7.05 g/m*3 15.3 C 16.1 km/h
183 29-04-2021 15:10:00 15.8 C 6.87 g/m*3 15.8 C 19.3 km/h
184 29-04-2021 15:15:00 16.2 C 6.76 g/m*3 16.2 C 17.7 km/h
185 29-04-2021 15:20:00 16.6 C 6.64 g/m*3 16.6 C 17.7 km/h
186 29-04-2021 15:25:00 16.6 C 6.22 g/m*3 16.6 C 20.9 km/h
187 29-04-2021 15:30:00 16.2 C 6.34 g/m*3 16.2 C 20.9 km/h
188 29-04-2021 15:35:00 15.9 C 6.09 g/m*3 15.9 C 24.1 km/h
189 29-04-2021 15:40:00 15.7 C 6.02 g/m*3 15.7 C 17.7 km/h
190 29-04-2021 15:45:00 15.3 C 6.4 g/m*3 15.3 C 17.7 km/h
191 29-04-2021 15:50:00 14.8 C 6.59 g/m*3 14.8 C 24.1 km/h
192 29-04-2021 15:55:00 14.5 C 6.59 g/m*3 14.5 C 17.7 km/h
193 29-04-2021 16:00:00 14.3 C 6.63 g/m*3 14.3 C 16.1 km/h
194 29-04-2021 16:05:00 14.3 C 6.63 g/m*3 14.3 C 19.3 km/h
195 29-04-2021 16:10:00 14.2 C 6.72 g/m*3 14.2 C 19.3 km/h
196 29-04-2021 16:15:00 14.3 C 6.76 g/m*3 14.3 C 16.1 km/h
197 29-04-2021 16:20:00 14.8 C 6.59 g/m*3 14.8 C 20.9 km/h
198 29-04-2021 16:25:00 15.2 C 6.62 g/m*3 15.2 C 20.9 km/h
199 29-04-2021 16:30:00 15.2 C 6.62 g/m*3 15.2 C 22.5 km/h
200 29-04-2021 16:35:00 15.4 C 6.83 g/m*3 15.4 C 17.7 km/h
Sensor: Nr:Datum:Temp:Abs-Feuchte:Windchill:Wind:
Aussen-T/F 201 29-04-2021 16:40:00 15.7 C 6.82 g/m*3 15.7 C 22.5 km/h
202 29-04-2021 16:45:00 15.8 C 6.6 g/m*3 15.8 C 22.5 km/h
203 29-04-2021 16:50:00 15.7 C 6.69 g/m*3 15.7 C 17.7 km/h
204 29-04-2021 16:55:00 15.7 C 6.56 g/m*3 15.7 C 17.7 km/h
205 29-04-2021 17:00:00 15.5 C 6.34 g/m*3 15.5 C 19.3 km/h
206 29-04-2021 17:05:00 14.8 C 6.33 g/m*3 14.8 C 22.5 km/h
207 29-04-2021 17:10:00 14.7 C 6.3 g/m*3 14.7 C 29 km/h
208 29-04-2021 17:15:00 14.4 C 6.3 g/m*3 14.4 C 16.1 km/h
209 29-04-2021 17:20:00 14.4 C 6.3 g/m*3 14.4 C 24.1 km/h
210 29-04-2021 17:25:00 14.4 C 6.3 g/m*3 14.4 C 12.9 km/h
211 29-04-2021 17:30:00 14.3 C 6.51 g/m*3 14.3 C 11.3 km/h
212 29-04-2021 17:35:00 14.1 C 6.07 g/m*3 14.1 C 20.9 km/h
213 29-04-2021 17:40:00 13.6 C 6.12 g/m*3 13.6 C 16.1 km/h
214 29-04-2021 17:45:00 13.5 C 6.2 g/m*3 13.5 C 17.7 km/h
215 29-04-2021 17:50:00 13.6 C 6.24 g/m*3 13.6 C 17.7 km/h
216 29-04-2021 17:55:00 13.8 C 6.08 g/m*3 13.8 C 19.3 km/h
217 29-04-2021 18:00:00 13.9 C 6.11 g/m*3 13.9 C 14.5 km/h
218 29-04-2021 18:05:00 13.8 C 6.2 g/m*3 13.8 C 17.7 km/h
219 29-04-2021 18:10:00 13.3 C 6.01 g/m*3 13.3 C 19.3 km/h
220 29-04-2021 18:15:00 12.8 C 6.05 g/m*3 12.8 C 17.7 km/h
221 29-04-2021 18:20:00 12.4 C 6.01 g/m*3 12.4 C 16.1 km/h
222 29-04-2021 18:25:00 12.2 C 6.04 g/m*3 12.2 C 19.3 km/h
223 29-04-2021 18:30:00 11.8 C 5.89 g/m*3 11.8 C 19.3 km/h
224 29-04-2021 18:35:00 11.8 C 6.1 g/m*3 11.8 C 16.1 km/h
225 29-04-2021 18:40:00 12.2 C 6.26 g/m*3 12.2 C 14.5 km/h
Sensor: Nr:Datum:Temp:Abs-Feuchte:Windchill:Wind:
Aussen-T/F 226 29-04-2021 18:45:00 12.4 C 6.12 g/m*3 12.4 C 12.9 km/h
227 29-04-2021 18:50:00 12.5 C 6.05 g/m*3 12.5 C 17.7 km/h
228 29-04-2021 18:55:00 12.4 C 6.01 g/m*3 12.4 C 14.5 km/h
229 29-04-2021 19:00:00 11.9 C 5.93 g/m*3 11.9 C 14.5 km/h
230 29-04-2021 19:05:00 11.4 C 5.85 g/m*3 11.4 C 22.5 km/h
231 29-04-2021 19:10:00 11.2 C 5.88 g/m*3 11.2 C 17.7 km/h
232 29-04-2021 19:15:00 11 C 5.91 g/m*3 8.7 C 19.3 km/h
233 29-04-2021 19:20:00 10.8 C 5.93 g/m*3 9.16 C 12.9 km/h
234 29-04-2021 19:25:00 10.7 C 5.89 g/m*3 8.48 C 17.7 km/h
235 29-04-2021 19:30:00 10.5 C 5.92 g/m*3 8.4 C 16.1 km/h
236 29-04-2021 19:35:00 10.4 C 5.88 g/m*3 8.47 C 14.5 km/h
237 29-04-2021 19:40:00 10.4 C 5.98 g/m*3 8.67 C 12.9 km/h
238 29-04-2021 19:45:00 10.5 C 6.01 g/m*3 9.02 C 11.3 km/h
239 29-04-2021 19:50:00 10.6 C 6.05 g/m*3 9.14 C 11.3 km/h
240 29-04-2021 19:55:00 10.6 C 6.05 g/m*3 8.71 C 14.5 km/h
241 29-04-2021 20:00:00 10.6 C 6.05 g/m*3 9.14 C 11.3 km/h
242 29-04-2021 20:05:00 10.4 C 5.88 g/m*3 8.9 C 11.3 km/h
243 29-04-2021 20:10:00 10.3 C 5.84 g/m*3 9.04 C 9.7 km/h
244 29-04-2021 20:15:00 10.2 C 5.8 g/m*3 8.92 C 9.7 km/h
245 29-04-2021 20:20:00 10.1 C 5.86 g/m*3 8.54 C 11.3 km/h
246 29-04-2021 20:25:00 10.1 C 5.86 g/m*3 8.54 C 11.3 km/h
247 29-04-2021 20:30:00 10 C 5.83 g/m*3 8.42 C 11.3 km/h
248 29-04-2021 20:35:00 9.9 C 5.79 g/m*3 8.56 C 9.7 km/h
249 29-04-2021 20:40:00 9.9 C 5.79 g/m*3 8.06 C 12.9 km/h
250 29-04-2021 20:45:00 9.9 C 5.79 g/m*3 8.56 C 9.7 km/h
Sensor: Nr:Datum:Temp:Abs-Feuchte:Windchill:Wind:
Aussen-T/F 251 29-04-2021 20:50:00 9.8 C 5.75 g/m*3 7.73 C 14.5 km/h
252 29-04-2021 20:55:00 9.8 C 5.85 g/m*3 7.94 C 12.9 km/h
253 29-04-2021 21:00:00 9.7 C 5.81 g/m*3 7.82 C 12.9 km/h
254 29-04-2021 21:05:00 9.6 C 5.68 g/m*3 7.94 C 11.3 km/h
255 29-04-2021 21:10:00 9.5 C 5.64 g/m*3 7.82 C 11.3 km/h
256 29-04-2021 21:15:00 9.4 C 5.7 g/m*3 8.68 C 6.4 km/h
257 29-04-2021 21:20:00 9.3 C 5.75 g/m*3 9.3 C 3.2 km/h
258 29-04-2021 21:25:00 9.2 C 5.8 g/m*3 9.2 C 3.2 km/h
259 29-04-2021 21:30:00 9.1 C 5.77 g/m*3 9.1 C 4.8 km/h
260 29-04-2021 21:35:00 8.8 C 5.74 g/m*3 8.8 C 4.8 km/h
261 29-04-2021 21:40:00 8.7 C 5.71 g/m*3 8.7 C 4.8 km/h
262 29-04-2021 21:45:00 8.4 C 5.68 g/m*3 8.4 C 4.8 km/h
263 29-04-2021 21:50:00 8.3 C 5.73 g/m*3 7.41 C 6.4 km/h
264 29-04-2021 21:55:00 8.2 C 5.69 g/m*3 8.2 C 4.8 km/h
265 29-04-2021 22:00:00 8.1 C 5.74 g/m*3 8.1 C 1.6 km/h
266 29-04-2021 22:05:00 7.9 C 5.75 g/m*3 7.9 C 0 km/h
267 29-04-2021 22:10:00 7.8 C 5.71 g/m*3 7.8 C 3.2 km/h
268 29-04-2021 22:15:00 7.7 C 5.76 g/m*3 7.7 C 4.8 km/h
269 29-04-2021 22:20:00 7.6 C 5.72 g/m*3 7.6 C 0 km/h
270 29-04-2021 22:25:00 7.4 C 5.73 g/m*3 7.4 C 3.2 km/h
271 29-04-2021 22:30:00 7.3 C 5.69 g/m*3 7.3 C 1.6 km/h
272 29-04-2021 22:35:00 7.2 C 5.73 g/m*3 7.2 C 4.8 km/h
273 29-04-2021 22:40:00 7 C 5.73 g/m*3 7 C 4.8 km/h
274 29-04-2021 22:45:00 6.9 C 5.77 g/m*3 6.9 C 1.6 km/h
275 29-04-2021 22:50:00 6.8 C 5.74 g/m*3 6.8 C 4.8 km/h
Sensor: Nr:Datum:Temp:Abs-Feuchte:Windchill:Wind:
Aussen-T/F 276 29-04-2021 22:55:00 6.8 C 5.74 g/m*3 6.8 C 4.8 km/h
277 29-04-2021 23:00:00 6.7 C 5.77 g/m*3 6.7 C 1.6 km/h
278 29-04-2021 23:05:00 6.6 C 5.74 g/m*3 6.6 C 0 km/h
279 29-04-2021 23:10:00 6.4 C 5.66 g/m*3 6.4 C 0 km/h
280 29-04-2021 23:15:00 6.3 C 5.7 g/m*3 6.3 C 0 km/h
281 29-04-2021 23:20:00 6.1 C 5.63 g/m*3 6.1 C 3.2 km/h
282 29-04-2021 23:25:00 5.9 C 5.62 g/m*3 5.9 C 1.6 km/h
283 29-04-2021 23:30:00 5.8 C 5.66 g/m*3 5.8 C 0 km/h
284 29-04-2021 23:35:00 5.7 C 5.62 g/m*3 5.7 C 0 km/h
285 29-04-2021 23:40:00 5.6 C 5.66 g/m*3 5.6 C 1.6 km/h
286 29-04-2021 23:45:00 5.6 C 5.66 g/m*3 5.6 C 4.8 km/h
287 29-04-2021 23:50:00 5.5 C 5.69 g/m*3 5.5 C 3.2 km/h
288 29-04-2021 23:55:00 5.4 C 5.65 g/m*3 5.4 C 3.2 km/h
289 30-04-2021 00:00:00 5.3 C 5.61 g/m*3 5.3 C 0 km/h
290 30-04-2021 00:05:00 5.3 C 5.61 g/m*3 5.3 C 0 km/h
291 30-04-2021 00:10:00 5.2 C 5.58 g/m*3 5.2 C 0 km/h
292 30-04-2021 00:15:00 5.2 C 5.65 g/m*3 5.2 C 1.6 km/h
293 30-04-2021 00:20:00 5.2 C 5.65 g/m*3 5.2 C 1.6 km/h
294 30-04-2021 00:25:00 5.1 C 5.61 g/m*3 5.1 C 4.8 km/h
295 30-04-2021 00:30:00 5 C 5.57 g/m*3 5 C 4.8 km/h
296 30-04-2021 00:35:00 4.9 C 5.6 g/m*3 4.9 C 3.2 km/h
297 30-04-2021 00:40:00 4.9 C 5.6 g/m*3 4.9 C 0 km/h
298 30-04-2021 00:45:00 4.8 C 5.57 g/m*3 4.8 C 0 km/h
299 30-04-2021 00:50:00 4.7 C 5.53 g/m*3 4.7 C 1.6 km/h
300 30-04-2021 00:55:00 4.6 C 5.49 g/m*3 4.6 C 3.2 km/h
Sensor: Nr:Datum:Temp:Abs-Feuchte:Windchill:Wind:
Aussen-T/F 301 30-04-2021 01:00:00 4.4 C 5.48 g/m*3 4.4 C 3.2 km/h
302 30-04-2021 01:05:00 4.4 C 5.48 g/m*3 4.4 C 3.2 km/h
303 30-04-2021 01:10:00 4.3 C 5.51 g/m*3 4.3 C 3.2 km/h
304 30-04-2021 01:15:00 4.3 C 5.51 g/m*3 4.3 C 1.6 km/h
305 30-04-2021 01:20:00 4.3 C 5.51 g/m*3 4.3 C 1.6 km/h
306 30-04-2021 01:25:00 4.2 C 5.48 g/m*3 4.2 C 0 km/h
307 30-04-2021 01:30:00 4.2 C 5.48 g/m*3 4.2 C 0 km/h
308 30-04-2021 01:35:00 4.1 C 5.5 g/m*3 4.1 C 1.6 km/h
309 30-04-2021 01:40:00 4.1 C 5.5 g/m*3 4.1 C 3.2 km/h
310 30-04-2021 01:45:00 4.1 C 5.5 g/m*3 4.1 C 4.8 km/h
311 30-04-2021 01:50:00 4 C 5.47 g/m*3 4 C 1.6 km/h
312 30-04-2021 01:55:00 3.9 C 5.43 g/m*3 3.9 C 1.6 km/h
313 30-04-2021 02:00:00 3.8 C 5.4 g/m*3 3.8 C 1.6 km/h
314 30-04-2021 02:05:00 3.8 C 5.4 g/m*3 3.8 C 1.6 km/h
315 30-04-2021 02:10:00 3.7 C 5.42 g/m*3 3.7 C 1.6 km/h
316 30-04-2021 02:15:00 3.6 C 5.39 g/m*3 3.6 C 0 km/h
317 30-04-2021 02:20:00 3.6 C 5.39 g/m*3 3.6 C 1.6 km/h
318 30-04-2021 02:25:00 3.6 C 5.39 g/m*3 3.6 C 1.6 km/h
319 30-04-2021 02:30:00 3.5 C 5.35 g/m*3 3.5 C 1.6 km/h
320 30-04-2021 02:35:00 3.5 C 5.41 g/m*3 3.5 C 1.6 km/h
321 30-04-2021 02:40:00 3.4 C 5.37 g/m*3 3.4 C 1.6 km/h
322 30-04-2021 02:45:00 3.4 C 5.37 g/m*3 3.4 C 1.6 km/h
323 30-04-2021 02:50:00 3.3 C 5.34 g/m*3 3.3 C 0 km/h
324 30-04-2021 02:55:00 3.2 C 5.3 g/m*3 3.2 C 0 km/h
325 30-04-2021 03:00:00 3.2 C 5.3 g/m*3 3.2 C 0 km/h
Sensor: Nr:Datum:Temp:Abs-Feuchte:Windchill:Wind:
Aussen-T/F 326 30-04-2021 03:05:00 3.1 C 5.27 g/m*3 3.1 C 4.8 km/h
327 30-04-2021 03:10:00 3.1 C 5.33 g/m*3 3.1 C 3.2 km/h
328 30-04-2021 03:15:00 3.1 C 5.33 g/m*3 3.1 C 3.2 km/h
329 30-04-2021 03:20:00 3.1 C 5.33 g/m*3 3.1 C 1.6 km/h
330 30-04-2021 03:25:00 3.1 C 5.33 g/m*3 3.1 C 0 km/h
331 30-04-2021 03:30:00 3 C 5.29 g/m*3 3 C 0 km/h
332 30-04-2021 03:35:00 2.9 C 5.26 g/m*3 2.9 C 0 km/h
333 30-04-2021 03:40:00 2.9 C 5.26 g/m*3 2.9 C 1.6 km/h
334 30-04-2021 03:45:00 2.9 C 5.26 g/m*3 2.9 C 3.2 km/h
335 30-04-2021 03:50:00 2.8 C 5.22 g/m*3 2.8 C 3.2 km/h
336 30-04-2021 03:55:00 2.8 C 5.22 g/m*3 2.8 C 0 km/h
337 30-04-2021 04:00:00 2.7 C 5.19 g/m*3 2.7 C 0 km/h
338 30-04-2021 04:05:00 2.7 C 5.19 g/m*3 2.7 C 4.8 km/h
339 30-04-2021 04:10:00 2.6 C 5.21 g/m*3 2.6 C 0 km/h
340 30-04-2021 04:15:00 2.5 C 5.17 g/m*3 2.5 C 0 km/h
341 30-04-2021 04:20:00 2.4 C 5.14 g/m*3 2.4 C 0 km/h
342 30-04-2021 04:25:00 2.4 C 5.14 g/m*3 2.4 C 0 km/h
343 30-04-2021 04:30:00 2.3 C 5.1 g/m*3 2.3 C 0 km/h
344 30-04-2021 04:35:00 2.2 C 5.07 g/m*3 2.2 C 1.6 km/h
345 30-04-2021 04:40:00 2.1 C 5.04 g/m*3 2.1 C 0 km/h
346 30-04-2021 04:45:00 1.9 C 4.97 g/m*3 1.9 C 0 km/h
347 30-04-2021 04:50:00 1.8 C 4.93 g/m*3 1.8 C 1.6 km/h
348 30-04-2021 04:55:00 1.9 C 5.02 g/m*3 0.01 C 6.4 km/h
349 30-04-2021 05:00:00 2 C 5.06 g/m*3 2 C 1.6 km/h
350 30-04-2021 05:05:00 2.1 C 5.09 g/m*3 2.1 C 0 km/h
Sensor: Nr:Datum:Temp:Abs-Feuchte:Windchill:Wind:
Aussen-T/F 351 30-04-2021 05:10:00 2 C 5.06 g/m*3 2 C 1.6 km/h
352 30-04-2021 05:15:00 2 C 5.06 g/m*3 2 C 3.2 km/h
353 30-04-2021 05:20:00 2 C 5.11 g/m*3 2 C 1.6 km/h
354 30-04-2021 05:25:00 2 C 5.11 g/m*3 2 C 3.2 km/h
355 30-04-2021 05:30:00 2 C 5.11 g/m*3 2 C 3.2 km/h
356 30-04-2021 05:35:00 1.9 C 5.08 g/m*3 1.9 C 1.6 km/h
357 30-04-2021 05:40:00 1.9 C 5.08 g/m*3 1.9 C 1.6 km/h
358 30-04-2021 05:45:00 1.9 C 5.08 g/m*3 1.9 C 1.6 km/h
359 30-04-2021 05:50:00 1.9 C 5.08 g/m*3 1.9 C 1.6 km/h
360 30-04-2021 05:55:00 2 C 5.11 g/m*3 0.13 C 6.4 km/h
361 30-04-2021 06:00:00 2.2 C 5.24 g/m*3 2.2 C 4.8 km/h
362 30-04-2021 06:05:00 2.3 C 5.27 g/m*3 2.3 C 3.2 km/h
363 30-04-2021 06:10:00 2.4 C 5.31 g/m*3 2.4 C 4.8 km/h
364 30-04-2021 06:15:00 2.6 C 5.38 g/m*3 2.6 C 0 km/h
365 30-04-2021 06:20:00 2.6 C 5.38 g/m*3 2.6 C 0 km/h
366 30-04-2021 06:25:00 2.6 C 5.38 g/m*3 2.6 C 4.8 km/h
367 30-04-2021 06:30:00 2.7 C 5.42 g/m*3 2.7 C 3.2 km/h
368 30-04-2021 06:35:00 2.7 C 5.36 g/m*3 0.94 C 6.4 km/h
369 30-04-2021 06:40:00 2.8 C 5.4 g/m*3 1.05 C 6.4 km/h
370 30-04-2021 06:45:00 2.8 C 5.4 g/m*3 0.1 C 9.7 km/h
371 30-04-2021 06:50:00 2.9 C 5.43 g/m*3 1.17 C 6.4 km/h
372 30-04-2021 06:55:00 2.9 C 5.43 g/m*3 1.17 C 6.4 km/h
373 30-04-2021 07:00:00 3 C 5.47 g/m*3 1.28 C 6.4 km/h
374 30-04-2021 07:05:00 3.1 C 5.51 g/m*3 1.4 C 6.4 km/h
375 30-04-2021 07:10:00 3.1 C 5.45 g/m*3 0.87 C 8.1 km/h
Sensor: Nr:Datum:Temp:Abs-Feuchte:Windchill:Wind:
Aussen-T/F 376 30-04-2021 07:15:00 3.1 C 5.45 g/m*3 0.46 C 9.7 km/h
377 30-04-2021 07:20:00 3.2 C 5.48 g/m*3 1.51 C 6.4 km/h
378 30-04-2021 07:25:00 3.2 C 5.48 g/m*3 0.99 C 8.1 km/h
379 30-04-2021 07:30:00 3.3 C 5.52 g/m*3 3.3 C 4.8 km/h
380 30-04-2021 07:35:00 3.4 C 5.56 g/m*3 1.23 C 8.1 km/h
381 30-04-2021 07:40:00 3.6 C 5.63 g/m*3 3.6 C 4.8 km/h
382 30-04-2021 07:45:00 3.7 C 5.61 g/m*3 1.18 C 9.7 km/h
383 30-04-2021 07:50:00 3.7 C 5.61 g/m*3 1.58 C 8.1 km/h
384 30-04-2021 07:55:00 3.8 C 5.65 g/m*3 1.7 C 8.1 km/h
385 30-04-2021 08:00:00 3.9 C 5.68 g/m*3 1.41 C 9.7 km/h
386 30-04-2021 08:05:00 4.1 C 5.76 g/m*3 2.05 C 8.1 km/h
387 30-04-2021 08:10:00 4.3 C 5.77 g/m*3 1.55 C 11.3 km/h
388 30-04-2021 08:15:00 4.4 C 5.81 g/m*3 2.4 C 8.1 km/h
389 30-04-2021 08:20:00 4.6 C 5.82 g/m*3 2.64 C 8.1 km/h
390 30-04-2021 08:25:00 4.7 C 5.86 g/m*3 2.76 C 8.1 km/h
391 30-04-2021 08:30:00 4.8 C 5.9 g/m*3 3.36 C 6.4 km/h
392 30-04-2021 08:35:00 5 C 5.98 g/m*3 5 C 4.8 km/h
393 30-04-2021 08:40:00 5.2 C 5.99 g/m*3 3.82 C 6.4 km/h
394 30-04-2021 08:45:00 5.3 C 6.03 g/m*3 5.3 C 4.8 km/h
395 30-04-2021 08:50:00 5.4 C 6 g/m*3 5.4 C 4.8 km/h
396 30-04-2021 08:55:00 5.6 C 6.01 g/m*3 4.29 C 6.4 km/h
397 30-04-2021 09:00:00 5.8 C 6.09 g/m*3 4.05 C 8.1 km/h
398 30-04-2021 09:05:00 5.8 C 6.02 g/m*3 4.05 C 8.1 km/h
399 30-04-2021 09:10:00 5.9 C 6.06 g/m*3 5.9 C 4.8 km/h
400 30-04-2021 09:15:00 6 C 6.1 g/m*3 4.75 C 6.4 km/h
Sensor: Nr:Datum:Temp:Abs-Feuchte:Windchill:Wind:
Aussen-T/F 401 30-04-2021 09:20:00 6.1 C 6.06 g/m*3 4.04 C 9.7 km/h
402 30-04-2021 09:25:00 6.2 C 6.1 g/m*3 3.84 C 11.3 km/h
403 30-04-2021 09:30:00 6.3 C 6.14 g/m*3 4.27 C 9.7 km/h
404 30-04-2021 09:35:00 6.4 C 6.11 g/m*3 5.21 C 6.4 km/h
405 30-04-2021 09:40:00 6.5 C 6.15 g/m*3 5.33 C 6.4 km/h
406 30-04-2021 09:45:00 6.6 C 6.11 g/m*3 5.44 C 6.4 km/h
407 30-04-2021 09:50:00 6.7 C 6.08 g/m*3 6.7 C 4.8 km/h
408 30-04-2021 09:55:00 6.8 C 6.12 g/m*3 5.67 C 6.4 km/h
409 30-04-2021 10:00:00 6.9 C 6.16 g/m*3 6.9 C 4.8 km/h
410 30-04-2021 10:05:00 7.1 C 6.24 g/m*3 6.02 C 6.4 km/h
411 30-04-2021 10:10:00 7.2 C 6.2 g/m*3 7.2 C 4.8 km/h
412 30-04-2021 10:15:00 7.2 C 6.12 g/m*3 7.2 C 4.8 km/h
413 30-04-2021 10:20:00 7.3 C 6.16 g/m*3 7.3 C 4.8 km/h
414 30-04-2021 10:25:00 7.4 C 6.2 g/m*3 6.37 C 6.4 km/h
415 30-04-2021 10:30:00 7.6 C 6.28 g/m*3 7.6 C 4.8 km/h
416 30-04-2021 10:35:00 7.6 C 6.28 g/m*3 6.6 C 6.4 km/h
417 30-04-2021 10:40:00 7.7 C 6.24 g/m*3 7.7 C 4.8 km/h
418 30-04-2021 10:45:00 7.8 C 6.28 g/m*3 7.8 C 4.8 km/h
419 30-04-2021 10:50:00 7.9 C 6.24 g/m*3 6.94 C 6.4 km/h
420 30-04-2021 10:55:00 7.9 C 6.32 g/m*3 7.9 C 4.8 km/h
421 30-04-2021 11:00:00 8.1 C 6.24 g/m*3 8.1 C 4.8 km/h
422 30-04-2021 11:05:00 8.1 C 6.41 g/m*3 8.1 C 3.2 km/h
423 30-04-2021 11:10:00 8.3 C 6.32 g/m*3 8.3 C 3.2 km/h
424 30-04-2021 11:15:00 8.3 C 6.32 g/m*3 8.3 C 3.2 km/h
425 30-04-2021 11:20:00 8.3 C 6.32 g/m*3 8.3 C 3.2 km/h
Sensor: Nr:Datum:Temp:Abs-Feuchte:Windchill:Wind:
Aussen-T/F 426 30-04-2021 11:25:00 8.3 C 6.32 g/m*3 8.3 C 4.8 km/h
427 30-04-2021 11:30:00 8.3 C 6.41 g/m*3 8.3 C 1.6 km/h
428 30-04-2021 11:35:00 8.4 C 6.36 g/m*3 8.4 C 3.2 km/h
429 30-04-2021 11:40:00 8.3 C 6.32 g/m*3 8.3 C 1.6 km/h
430 30-04-2021 11:45:00 8.4 C 6.36 g/m*3 8.4 C 4.8 km/h
431 30-04-2021 11:50:00 8.5 C 6.4 g/m*3 8.5 C 3.2 km/h
432 30-04-2021 11:55:00 8.8 C 6.53 g/m*3 7.58 C 8.1 km/h
433 30-04-2021 12:00:00 9.1 C 6.48 g/m*3 9.1 C 3.2 km/h
434 30-04-2021 12:05:00 9.2 C 6.52 g/m*3 9.2 C 0 km/h
435 30-04-2021 12:10:00 9.3 C 6.56 g/m*3 7.85 C 9.7 km/h
436 30-04-2021 12:15:00 9.6 C 6.69 g/m*3 8.52 C 8.1 km/h
437 30-04-2021 12:20:00 9.8 C 6.68 g/m*3 9.8 C 4.8 km/h
438 30-04-2021 12:25:00 9.8 C 6.59 g/m*3 9.14 C 6.4 km/h
439 30-04-2021 12:30:00 9.8 C 6.68 g/m*3 9.8 C 4.8 km/h
440 30-04-2021 12:35:00 10.1 C 6.62 g/m*3 10.1 C 3.2 km/h
441 30-04-2021 12:40:00 10.2 C 6.66 g/m*3 8.92 C 9.7 km/h
442 30-04-2021 12:45:00 10.2 C 6.66 g/m*3 8.22 C 14.5 km/h
443 30-04-2021 12:50:00 10.2 C 6.66 g/m*3 8.92 C 9.7 km/h
444 30-04-2021 12:55:00 10.2 C 6.66 g/m*3 9.6 C 6.4 km/h
445 30-04-2021 13:00:00 10.3 C 6.8 g/m*3 9.72 C 6.4 km/h
446 30-04-2021 13:05:00 10.6 C 6.73 g/m*3 9.4 C 9.7 km/h
447 30-04-2021 13:10:00 10.6 C 6.73 g/m*3 9.4 C 9.7 km/h
448 30-04-2021 13:15:00 10.7 C 6.58 g/m*3 9.81 C 8.1 km/h
449 30-04-2021 13:20:00 10.7 C 6.68 g/m*3 10.18 C 6.4 km/h
450 30-04-2021 13:25:00 10.8 C 6.62 g/m*3 10.29 C 6.4 km/h
Sensor: Nr:Datum:Temp:Abs-Feuchte:Windchill:Wind:
Aussen-T/F 451 30-04-2021 13:30:00 11 C 6.81 g/m*3 10.16 C 8.1 km/h
452 30-04-2021 13:35:00 11.2 C 6.79 g/m*3 11.2 C 9.7 km/h
453 30-04-2021 13:40:00 11.3 C 6.73 g/m*3 11.3 C 6.4 km/h
454 30-04-2021 13:45:00 11.4 C 6.77 g/m*3 11.4 C 11.3 km/h
455 30-04-2021 13:50:00 11.5 C 6.71 g/m*3 11.5 C 8.1 km/h
456 30-04-2021 13:55:00 11.6 C 6.65 g/m*3 11.6 C 3.2 km/h
457 30-04-2021 14:00:00 11.7 C 6.59 g/m*3 11.7 C 3.2 km/h
458 30-04-2021 14:05:00 12 C 6.61 g/m*3 12 C 6.4 km/h
459 30-04-2021 14:10:00 12.2 C 6.58 g/m*3 12.2 C 4.8 km/h
460 30-04-2021 14:15:00 12.2 C 6.47 g/m*3 12.2 C 12.9 km/h
461 30-04-2021 14:20:00 12.1 C 6.43 g/m*3 12.1 C 11.3 km/h
462 30-04-2021 14:25:00 12 C 6.61 g/m*3 12 C 8.1 km/h
463 30-04-2021 14:30:00 12.1 C 6.43 g/m*3 12.1 C 4.8 km/h
464 30-04-2021 14:35:00 12.2 C 6.37 g/m*3 12.2 C 6.4 km/h
465 30-04-2021 14:40:00 12.3 C 6.08 g/m*3 12.3 C 8.1 km/h
466 30-04-2021 14:45:00 12.4 C 5.68 g/m*3 12.4 C 8.1 km/h
467 30-04-2021 14:50:00 12.6 C 5.86 g/m*3 12.6 C 0 km/h
468 30-04-2021 14:55:00 12.9 C 5.86 g/m*3 12.9 C 6.4 km/h
469 30-04-2021 15:00:00 13.3 C 6.24 g/m*3 13.3 C 3.2 km/h
470 30-04-2021 15:05:00 13.6 C 6.12 g/m*3 13.6 C 9.7 km/h
471 30-04-2021 15:10:00 13.8 C 6.2 g/m*3 13.8 C 6.4 km/h
472 30-04-2021 15:15:00 13.8 C 5.84 g/m*3 13.8 C 6.4 km/h
473 30-04-2021 15:20:00 13.7 C 5.57 g/m*3 13.7 C 8.1 km/h
474 30-04-2021 15:25:00 13.7 C 5.8 g/m*3 13.7 C 6.4 km/h
475 30-04-2021 15:30:00 13.8 C 5.72 g/m*3 13.8 C 4.8 km/h
Sensor: Nr:Datum:Temp:Abs-Feuchte:Windchill:Wind:
Aussen-T/F 476 30-04-2021 15:35:00 13.8 C 5.6 g/m*3 13.8 C 6.4 km/h
477 30-04-2021 15:40:00 13.7 C 5.8 g/m*3 13.7 C 0 km/h
478 30-04-2021 15:45:00 13.9 C 6.23 g/m*3 13.9 C 4.8 km/h
479 30-04-2021 15:50:00 14.3 C 6.02 g/m*3 14.3 C 6.4 km/h
480 30-04-2021 15:55:00 14.6 C 6.01 g/m*3 14.6 C 11.3 km/h
481 30-04-2021 16:00:00 15.2 C 5.97 g/m*3 15.2 C 6.4 km/h
482 30-04-2021 16:05:00 15.4 C 6.04 g/m*3 15.4 C 8.1 km/h
483 30-04-2021 16:10:00 15.3 C 5.75 g/m*3 15.3 C 8.1 km/h
484 30-04-2021 16:15:00 15.2 C 5.97 g/m*3 15.2 C 8.1 km/h
485 30-04-2021 16:20:00 15.6 C 5.98 g/m*3 15.6 C 8.1 km/h
486 30-04-2021 16:25:00 15.6 C 5.85 g/m*3 15.6 C 8.1 km/h
487 30-04-2021 16:30:00 15.1 C 5.81 g/m*3 15.1 C 9.7 km/h
488 30-04-2021 16:35:00 14.7 C 5.79 g/m*3 14.7 C 6.4 km/h
489 30-04-2021 16:40:00 14.4 C 5.93 g/m*3 14.4 C 4.8 km/h
490 30-04-2021 16:45:00 14.3 C 6.51 g/m*3 14.3 C 6.4 km/h
491 30-04-2021 16:50:00 14 C 6.15 g/m*3 14 C 6.4 km/h
492 30-04-2021 16:55:00 13.7 C 5.92 g/m*3 13.7 C 6.4 km/h
493 30-04-2021 17:00:00 13.6 C 6.12 g/m*3 13.6 C 8.1 km/h
494 30-04-2021 17:05:00 13.4 C 6.04 g/m*3 13.4 C 8.1 km/h
495 30-04-2021 17:10:00 13.4 C 6.16 g/m*3 13.4 C 8.1 km/h
496 30-04-2021 17:15:00 13.4 C 6.28 g/m*3 13.4 C 3.2 km/h
497 30-04-2021 17:20:00 13.4 C 6.28 g/m*3 13.4 C 1.6 km/h
498 30-04-2021 17:25:00 13.3 C 6.24 g/m*3 13.3 C 1.6 km/h
499 30-04-2021 17:30:00 13.3 C 6.12 g/m*3 13.3 C 4.8 km/h
500 30-04-2021 17:35:00 13.2 C 5.97 g/m*3 13.2 C 3.2 km/h
Sensor: Nr:Datum:Temp:Abs-Feuchte:Windchill:Wind:
Aussen-T/F 501 30-04-2021 17:40:00 13.2 C 6.2 g/m*3 13.2 C 0 km/h
502 30-04-2021 17:45:00 13.2 C 6.2 g/m*3 13.2 C 1.6 km/h
503 30-04-2021 17:50:00 13.2 C 6.2 g/m*3 13.2 C 1.6 km/h
504 30-04-2021 17:55:00 13.2 C 6.32 g/m*3 13.2 C 0 km/h
505 30-04-2021 18:00:00 13.2 C 6.2 g/m*3 13.2 C 0 km/h
506 30-04-2021 18:05:00 13.2 C 6.2 g/m*3 13.2 C 3.2 km/h
507 30-04-2021 18:10:00 13.2 C 5.97 g/m*3 13.2 C 8.1 km/h
508 30-04-2021 18:15:00 13.2 C 6.32 g/m*3 13.2 C 8.1 km/h
509 30-04-2021 18:20:00 13.2 C 6.09 g/m*3 13.2 C 4.8 km/h
510 30-04-2021 18:25:00 13.3 C 6.24 g/m*3 13.3 C 3.2 km/h
511 30-04-2021 18:30:00 13.3 C 6.24 g/m*3 13.3 C 8.1 km/h
512 30-04-2021 18:35:00 13.3 C 6.12 g/m*3 13.3 C 8.1 km/h
513 30-04-2021 18:40:00 13.3 C 6.35 g/m*3 13.3 C 1.6 km/h
514 30-04-2021 18:45:00 13.3 C 6.12 g/m*3 13.3 C 1.6 km/h
515 30-04-2021 18:50:00 13.3 C 6.24 g/m*3 13.3 C 0 km/h
516 30-04-2021 18:55:00 13.2 C 6.32 g/m*3 13.2 C 0 km/h
517 30-04-2021 19:00:00 13.2 C 6.32 g/m*3 13.2 C 1.6 km/h
518 30-04-2021 19:05:00 13.2 C 6.2 g/m*3 13.2 C 3.2 km/h
519 30-04-2021 19:10:00 13.1 C 6.05 g/m*3 13.1 C 4.8 km/h
520 30-04-2021 19:15:00 13.1 C 6.28 g/m*3 13.1 C 1.6 km/h
521 30-04-2021 19:20:00 13.1 C 6.16 g/m*3 13.1 C 0 km/h
522 30-04-2021 19:25:00 13 C 6.58 g/m*3 13 C 0 km/h
523 30-04-2021 19:30:00 12.9 C 6.31 g/m*3 12.9 C 0 km/h
524 30-04-2021 19:35:00 12.9 C 6.31 g/m*3 12.9 C 0 km/h
525 30-04-2021 19:40:00 12.8 C 6.61 g/m*3 12.8 C 0 km/h
Sensor: Nr:Datum:Temp:Abs-Feuchte:Windchill:Wind:
Aussen-T/F 526 30-04-2021 19:45:00 12.7 C 6.79 g/m*3 12.7 C 0 km/h
527 30-04-2021 19:50:00 12.6 C 6.75 g/m*3 12.6 C 0 km/h
528 30-04-2021 19:55:00 12.5 C 6.71 g/m*3 12.5 C 0 km/h
529 30-04-2021 20:00:00 12.4 C 6.88 g/m*3 12.4 C 0 km/h
530 30-04-2021 20:05:00 12.3 C 6.95 g/m*3 12.3 C 1.6 km/h
531 30-04-2021 20:10:00 12.1 C 6.86 g/m*3 12.1 C 1.6 km/h
532 30-04-2021 20:15:00 11.9 C 6.78 g/m*3 11.9 C 1.6 km/h
533 30-04-2021 20:20:00 11.8 C 6.84 g/m*3 11.8 C 0 km/h
534 30-04-2021 20:25:00 11.6 C 6.76 g/m*3 11.6 C 3.2 km/h
535 30-04-2021 20:30:00 11.3 C 6.73 g/m*3 11.3 C 1.6 km/h
536 30-04-2021 20:35:00 11.2 C 6.79 g/m*3 11.2 C 0 km/h
537 30-04-2021 20:40:00 11 C 6.71 g/m*3 11 C 1.6 km/h
538 30-04-2021 20:45:00 10.8 C 6.62 g/m*3 10.8 C 3.2 km/h
539 30-04-2021 20:50:00 10.7 C 6.68 g/m*3 10.7 C 1.6 km/h
540 30-04-2021 20:55:00 10.5 C 6.69 g/m*3 10.5 C 0 km/h
541 30-04-2021 21:00:00 10.4 C 6.65 g/m*3 10.4 C 0 km/h
542 30-04-2021 21:05:00 10.3 C 6.61 g/m*3 10.3 C 0 km/h
543 30-04-2021 21:10:00 10.1 C 6.62 g/m*3 10.1 C 0 km/h
544 30-04-2021 21:15:00 9.9 C 6.54 g/m*3 9.9 C 0 km/h
545 30-04-2021 21:20:00 9.8 C 6.59 g/m*3 9.8 C 0 km/h
546 30-04-2021 21:25:00 9.7 C 6.64 g/m*3 9.7 C 0 km/h
547 30-04-2021 21:30:00 9.6 C 6.6 g/m*3 9.6 C 0 km/h
548 30-04-2021 21:35:00 9.6 C 6.6 g/m*3 9.6 C 4.8 km/h
549 30-04-2021 21:40:00 9.6 C 6.6 g/m*3 9.6 C 4.8 km/h
550 30-04-2021 21:45:00 9.6 C 6.5 g/m*3 8.52 C 8.1 km/h
Sensor: Nr:Datum:Temp:Abs-Feuchte:Windchill:Wind:
Aussen-T/F 551 30-04-2021 21:50:00 9.7 C 6.45 g/m*3 9.7 C 3.2 km/h
552 30-04-2021 21:55:00 9.7 C 6.45 g/m*3 9.7 C 0 km/h
553 30-04-2021 22:00:00 9.8 C 6.68 g/m*3 9.8 C 0 km/h
554 30-04-2021 22:05:00 9.8 C 6.68 g/m*3 9.8 C 0 km/h
555 30-04-2021 22:10:00 9.8 C 6.77 g/m*3 9.8 C 0 km/h
556 30-04-2021 22:15:00 9.7 C 6.64 g/m*3 9.7 C 0 km/h
557 30-04-2021 22:20:00 9.7 C 6.73 g/m*3 9.7 C 1.6 km/h
558 30-04-2021 22:25:00 9.7 C 6.64 g/m*3 9.7 C 3.2 km/h
559 30-04-2021 22:30:00 9.6 C 6.69 g/m*3 9.6 C 1.6 km/h
560 30-04-2021 22:35:00 9.6 C 6.69 g/m*3 9.6 C 1.6 km/h
561 30-04-2021 22:40:00 9.5 C 6.64 g/m*3 9.5 C 1.6 km/h
562 30-04-2021 22:45:00 9.4 C 6.6 g/m*3 9.4 C 0 km/h
563 30-04-2021 22:50:00 9.4 C 6.69 g/m*3 9.4 C 0 km/h
564 30-04-2021 22:55:00 9.3 C 6.65 g/m*3 9.3 C 0 km/h
565 30-04-2021 23:00:00 9.3 C 6.65 g/m*3 9.3 C 0 km/h
566 30-04-2021 23:05:00 9.2 C 6.61 g/m*3 9.2 C 0 km/h
567 30-04-2021 23:10:00 9.2 C 6.61 g/m*3 9.2 C 4.8 km/h
568 30-04-2021 23:15:00 9.2 C 6.61 g/m*3 9.2 C 4.8 km/h
569 30-04-2021 23:20:00 9.1 C 6.57 g/m*3 9.1 C 4.8 km/h
570 30-04-2021 23:25:00 9.1 C 6.57 g/m*3 9.1 C 4.8 km/h
571 30-04-2021 23:30:00 9.1 C 6.57 g/m*3 9.1 C 1.6 km/h
572 30-04-2021 23:35:00 9.1 C 6.57 g/m*3 9.1 C 1.6 km/h
573 30-04-2021 23:40:00 9.2 C 6.61 g/m*3 9.2 C 1.6 km/h
574 30-04-2021 23:45:00 9.2 C 6.61 g/m*3 9.2 C 0 km/h
575 30-04-2021 23:50:00 9.1 C 6.57 g/m*3 9.1 C 0 km/h
Sensor: Nr:Datum:Temp:Abs-Feuchte:Windchill:Wind:
Aussen-T/F 576 30-04-2021 23:55:00 9.1 C 6.57 g/m*3 9.1 C 0 km/h

Legende:
   Min
   Max


Maximal/Minimal-Werte vom 29.04.2021 - 30.04.2021

Sensor Min Max Avg
Temp
(Aussen-T/F)
1.8 °C
30-04-2021  04:50:00
16.6 °C
29-04-2021  15:20:00
9.96 °C
Abs-Feuchte
(Aussen-T/F)
4.93 g/m*3
30-04-2021  04:50:00
8.37 g/m*3
29-04-2021  08:35:00
6.48 g/m*3
Windchill
(Aussen-T/F)
0.01 C
30-04-2021  04:55:00
16.6 C
29-04-2021  15:20:00
9.68 C

Die Daten stammen von einer Davis Vantage Pro 2 Wetter-Station und werden unter Linux mit der Software wview2wettercgi und aufbereitet. Alle Angaben erfolgen ohne Gewähr für ihre Vollständigkeit oder Richtigkeit.
Kontakt: Rainer Krienke krienke@uni-koblenz.de . Meine Webseiten an der Uni Koblenz oder privat.
Version: $Revision: 0.78 $